Time;durP1;ratioP1;P1;durP2;ratioP2;P2;SDS_P1;SDS_P2;PMS_P1;PMS_P2;Temp;Humidity;BMP_temperature;BMP_pressure;BME280_temperature;BME280_humidity;BME280_pressure;Samples;Min_cycle;Max_cycle;Signal;HPM_P1;HPM_P2
2022/02/11 00:02:06;;;;;;;38.95;25.90;;;;;;;4.38;100.00;100581.52;1730066;83;21324;-75
2022/02/11 00:08:15;;;;;;;35.95;23.25;;;;;;;4.40;100.00;100586.30;1733729;83;21315;-75
2022/02/11 00:11:22;;;;;;;35.43;23.05;;;;;;;4.44;100.00;100586.91;1733701;83;21303;-82
2022/02/11 00:14:31;;;;;;;37.03;24.00;;;;;;;4.43;100.00;100593.31;1729883;82;21214;-75
2022/02/11 00:17:35;;;;;;;36.13;24.60;;;;;;;4.44;100.00;100581.48;1770978;81;21331;-75
2022/02/11 00:20:39;;;;;;;40.88;24.67;;;;;;;4.49;100.00;100576.53;1770913;81;21300;-82
2022/02/11 00:23:43;;;;;;;39.83;25.20;;;;;;;4.50;100.00;100585.87;1771018;81;21173;-81
2022/02/11 00:27:06;;;;;;;33.40;23.18;;;;;;;4.48;100.00;100581.09;1771028;81;21284;-75
2022/02/11 00:36:21;;;;;;;37.10;21.77;;;;;;;4.43;100.00;100573.86;1770831;81;21837;-76
2022/02/11 01:03:14;;;;;;;32.15;19.67;;;;;;;4.04;100.00;100561.81;1769417;81;21599;-83
2022/02/11 01:06:13;;;;;;;34.25;19.98;;;;;;;4.03;100.00;100568.22;1769153;81;21833;-83
2022/02/11 01:09:18;;;;;;;32.60;21.07;;;;;;;4.04;100.00;100560.46;1769217;81;21691;-76
2022/02/11 01:12:25;;;;;;;32.60;20.75;;;;;;;4.07;100.00;100567.84;1769966;81;21224;-76
2022/02/11 01:15:34;;;;;;;30.40;21.05;;;;;;;4.10;100.00;100559.97;1775036;80;21856;-76
2022/02/11 01:18:44;;;;;;;28.67;19.20;;;;;;;4.10;100.00;100553.20;1784448;80;21220;-76
2022/02/11 01:22:03;;;;;;;31.93;21.50;;;;;;;4.11;100.00;100558.97;1783613;80;21306;-83
2022/02/11 01:47:55;;;;;;;27.25;19.10;;;;;;;4.51;100.00;100540.67;1783521;79;21291;-83
2022/02/11 01:51:03;;;;;;;25.52;17.77;;;;;;;4.43;100.00;100533.73;1782687;80;21268;-82
2022/02/11 01:57:05;;;;;;;26.02;17.55;;;;;;;4.15;100.00;100524.39;1784437;80;21773;-83
2022/02/11 02:20:40;;;;;;;34.92;19.20;;;;;;;4.09;100.00;100522.56;1755876;81;21316;-82
2022/02/11 02:43:26;;;;;;;29.10;17.45;;;;;;;3.86;100.00;100531.75;1758285;79;21291;-76
2022/02/11 02:50:21;;;;;;;28.80;16.67;;;;;;;3.74;100.00;100529.56;1740446;82;21268;-76
2022/02/11 02:59:43;;;;;;;27.13;16.87;;;;;;;3.61;100.00;100531.55;1740218;82;21279;-83
2022/02/11 03:50:29;;;;;;;44.25;24.27;;;;;;;3.37;100.00;100520.05;1778998;80;21283;-82
2022/02/11 04:24:40;;;;;;;34.45;19.52;;;;;;;3.28;100.00;100483.30;1713771;83;21156;-76
2022/02/11 04:56:51;;;;;;;51.37;26.95;;;;;;;3.30;100.00;100485.41;1732729;82;21282;-83
2022/02/11 04:59:57;;;;;;;53.87;25.90;;;;;;;3.27;100.00;100491.06;1742618;82;21267;-83
2022/02/11 05:03:02;;;;;;;52.27;25.15;;;;;;;3.26;100.00;100494.75;1736207;80;21290;-75
2022/02/11 05:06:07;;;;;;;53.17;27.70;;;;;;;3.26;100.00;100490.70;1744034;82;22342;-76
2022/02/11 05:09:14;;;;;;;45.12;24.23;;;;;;;3.31;100.00;100492.53;1735988;82;22158;-80
2022/02/11 05:12:19;;;;;;;55.00;27.90;;;;;;;3.37;100.00;100498.42;1743075;82;21852;-76
2022/02/11 05:15:25;;;;;;;49.85;27.42;;;;;;;3.35;100.00;100494.50;1742624;82;21844;-77
2022/02/11 05:18:30;;;;;;;59.23;26.87;;;;;;;3.38;100.00;100486.61;1738171;81;21677;-76
2022/02/11 05:21:36;;;;;;;46.90;27.48;;;;;;;3.43;100.00;100489.80;1751888;82;21192;-76
2022/02/11 05:24:41;;;;;;;50.95;25.12;;;;;;;3.46;100.00;100489.05;1752506;82;21279;-83
2022/02/11 05:27:48;;;;;;;54.63;27.65;;;;;;;3.47;100.00;100494.83;1754136;80;21192;-83
2022/02/11 05:30:53;;;;;;;45.30;25.65;;;;;;;3.44;100.00;100486.12;1781756;79;21264;-81
2022/02/11 05:33:59;;;;;;;48.87;28.47;;;;;;;3.35;100.00;100478.77;1768625;80;21322;-76
2022/02/11 05:37:04;;;;;;;48.38;26.07;;;;;;;3.32;100.00;100487.48;1771795;80;21311;-77
2022/02/11 05:40:12;;;;;;;45.43;26.57;;;;;;;3.29;100.00;100482.34;1773282;80;21354;-83
2022/02/11 05:43:19;;;;;;;41.18;24.35;;;;;;;3.29;100.00;100486.86;1776047;80;21327;-76
2022/02/11 05:46:27;;;;;;;46.25;25.57;;;;;;;3.28;100.00;100490.06;1778351;80;21306;-76
2022/02/11 05:49:41;;;;;;;49.40;31.33;;;;;;;3.22;100.00;100477.55;1859968;76;28325;-79
2022/02/11 05:52:46;;;;;;;39.18;23.80;;;;;;;3.23;100.00;100485.53;1770850;79;21275;-79
2022/02/11 05:55:46;;;;;;;43.48;25.30;;;;;;;3.26;100.00;100482.59;1772919;79;21303;-79
2022/02/11 05:58:52;;;;;;;42.35;24.12;;;;;;;3.27;100.00;100486.15;1780476;79;21188;-79
2022/02/11 06:01:57;;;;;;;46.00;26.97;;;;;;;3.28;100.00;100487.36;1754686;80;21403;-79
2022/02/11 06:05:03;;;;;;;45.88;26.23;;;;;;;3.30;100.00;100489.47;1775915;80;21373;-79
2022/02/11 06:08:11;;;;;;;51.42;24.87;;;;;;;3.35;100.00;100486.39;1770564;80;21307;-78
2022/02/11 06:11:17;;;;;;;43.73;25.15;;;;;;;3.43;100.00;100488.44;1748689;80;21292;-78
2022/02/11 06:14:22;;;;;;;49.00;25.40;;;;;;;3.51;100.00;100494.09;1763510;80;21190;-78
2022/02/11 06:17:28;;;;;;;40.38;23.40;;;;;;;3.56;100.00;100488.66;1761399;80;21232;-80
2022/02/11 06:20:33;;;;;;;40.20;21.45;;;;;;;3.59;100.00;100488.41;1782591;79;21254;-81
2022/02/11 06:23:40;;;;;;;39.55;21.20;;;;;;;3.58;100.00;100488.05;1773310;80;21152;-80
2022/02/11 06:29:35;;;;;;;31.40;19.80;;;;;;;3.64;100.00;100475.86;1831768;76;28108;-85
2022/02/11 06:32:47;;;;;;;30.88;18.57;;;;;;;3.59;100.00;100483.00;1772093;79;21161;-84
2022/02/11 06:35:52;;;;;;;34.15;20.30;;;;;;;3.55;99.94;100478.83;1772233;79;21833;-76
2022/02/11 06:39:00;;;;;;;30.65;19.23;;;;;;;3.51;99.94;100473.30;1763659;80;21176;-76
2022/02/11 06:42:07;;;;;;;33.08;19.35;;;;;;;3.48;100.00;100476.75;1766575;79;21170;-76
2022/02/11 06:45:13;;;;;;;30.08;19.15;;;;;;;3.46;100.00;100477.38;1763089;80;21965;-76
2022/02/11 06:48:23;;;;;;;32.17;19.12;;;;;;;3.53;100.00;100471.84;1764261;80;21148;-75
2022/02/11 06:51:27;;;;;;;30.70;17.42;;;;;;;3.61;100.00;100472.05;1761716;80;21306;-75
2022/02/11 06:54:33;;;;;;;29.85;18.80;;;;;;;3.67;100.00;100454.44;1768464;79;22058;-76
2022/02/11 06:57:39;;;;;;;30.12;18.12;;;;;;;3.74;100.00;100457.86;1767087;80;21302;-76
2022/02/11 07:00:55;;;;;;;27.75;15.32;;;;;;;3.79;100.00;100458.33;1770220;79;21681;-77
2022/02/11 07:04:01;;;;;;;28.52;15.78;;;;;;;3.84;100.00;100460.16;1761584;79;21285;-83
2022/02/11 07:07:08;;;;;;;26.85;16.40;;;;;;;3.79;99.96;100462.89;1767201;80;21826;-82
2022/02/11 07:10:15;;;;;;;29.65;16.77;;;;;;;3.79;100.00;100469.16;1770365;79;21141;-83
2022/02/11 07:13:20;;;;;;;30.92;19.30;;;;;;;3.91;100.00;100465.07;1774252;80;21185;-82
2022/02/11 07:16:25;;;;;;;25.77;16.30;;;;;;;3.89;100.00;100462.47;1770064;79;21863;-83
2022/02/11 07:19:30;;;;;;;26.55;16.00;;;;;;;3.95;99.99;100461.09;1772154;80;21279;-83
2022/02/11 07:22:35;;;;;;;36.45;17.82;;;;;;;4.02;98.98;100456.89;1767012;80;21164;-82
2022/02/11 07:25:41;;;;;;;23.77;15.28;;;;;;;3.99;99.14;100454.42;1761789;80;21323;-83
2022/02/11 07:28:48;;;;;;;28.85;16.00;;;;;;;3.94;99.40;100456.67;1766359;80;21956;-82
2022/02/11 07:31:55;;;;;;;28.90;15.83;;;;;;;3.96;99.70;100457.42;1749170;81;21296;-83
2022/02/11 07:35:03;;;;;;;28.55;16.42;;;;;;;3.99;99.94;100447.66;1757546;81;21794;-83
2022/02/11 07:38:15;;;;;;;23.73;13.80;;;;;;;4.02;99.87;100450.97;1753749;81;21647;-84
2022/02/11 07:41:29;;;;;;;22.62;14.23;;;;;;;4.09;99.85;100452.18;1753703;81;21801;-83
2022/02/11 07:44:36;;;;;;;22.80;13.32;;;;;;;4.09;99.52;100443.17;1756987;81;21216;-83
2022/02/11 07:47:40;;;;;;;18.67;12.73;;;;;;;4.11;99.61;100441.21;1747652;81;21574;-84
2022/02/11 07:50:45;;;;;;;21.77;12.50;;;;;;;4.15;99.54;100431.84;1757829;81;21146;-83
2022/02/11 07:53:45;;;;;;;27.73;13.32;;;;;;;4.20;99.50;100437.72;1754454;81;21935;-82
2022/02/11 07:56:51;;;;;;;21.27;11.08;;;;;;;4.45;99.41;100435.08;1751555;81;21652;-82
2022/02/11 07:59:56;;;;;;;22.25;12.95;;;;;;;4.31;98.96;100430.01;1751946;79;21299;-83
2022/02/11 08:03:03;;;;;;;21.52;12.33;;;;;;;4.36;98.93;100425.90;1749631;81;21275;-83
2022/02/11 08:06:11;;;;;;;21.75;12.30;;;;;;;4.48;98.88;100420.42;1768633;81;21264;-83
2022/02/11 08:09:16;;;;;;;20.85;12.88;;;;;;;4.61;98.49;100423.27;1766012;81;21355;-81
2022/02/11 08:12:22;;;;;;;24.15;12.23;;;;;;;4.69;98.29;100431.20;1749778;81;21294;-75
2022/02/11 08:15:28;;;;;;;19.17;11.90;;;;;;;4.74;97.77;100423.02;1751307;81;21366;-76
2022/02/11 08:18:33;;;;;;;20.72;10.82;;;;;;;4.83;97.51;100424.92;1754404;81;21311;-76
2022/02/11 08:21:41;;;;;;;19.77;11.12;;;;;;;4.92;97.41;100419.18;1750289;81;21277;-76
2022/02/11 08:24:48;;;;;;;24.32;11.25;;;;;;;5.05;97.41;100417.59;1745820;81;21113;-76
2022/02/11 08:27:54;;;;;;;16.40;10.45;;;;;;;5.17;96.98;100417.81;1717955;82;21274;-76
2022/02/11 08:31:02;;;;;;;25.02;11.85;;;;;;;5.27;96.52;100412.41;1754254;80;21266;-76
2022/02/11 08:34:07;;;;;;;16.75;10.50;;;;;;;5.32;96.03;100411.02;1753971;80;21236;-76
2022/02/11 08:37:12;;;;;;;20.43;9.40;;;;;;;5.43;95.58;100409.17;1765053;80;21133;-76
2022/02/11 08:40:18;;;;;;;18.82;10.25;;;;;;;5.51;95.52;100406.12;1729976;82;21153;-76
2022/02/11 08:43:24;;;;;;;21.70;10.08;;;;;;;5.60;95.03;100401.20;1725758;82;21163;-76
2022/02/11 08:46:31;;;;;;;17.62;10.80;;;;;;;5.68;94.92;100396.40;1732576;82;21271;-76
2022/02/11 08:49:38;;;;;;;19.60;9.75;;;;;;;5.79;94.34;100392.70;1713487;83;21273;-76
2022/02/11 08:52:42;;;;;;;14.60;8.80;;;;;;;5.92;93.89;100386.98;1723115;82;21307;-76
2022/02/11 08:55:48;;;;;;;16.48;9.08;;;;;;;6.00;93.73;100378.98;1729173;82;21704;-76
2022/02/11 08:58:55;;;;;;;20.50;9.70;;;;;;;6.45;92.60;100374.24;1708306;83;21233;-76
2022/02/11 09:02:00;;;;;;;15.00;8.83;;;;;;;6.28;92.73;100360.41;1709462;83;22137;-76
2022/02/11 09:05:05;;;;;;;18.25;10.20;;;;;;;6.33;92.00;100364.89;1705082;83;21155;-76
2022/02/11 09:08:10;;;;;;;18.82;10.28;;;;;;;6.32;91.35;100357.75;1711631;83;21305;-76
2022/02/11 09:11:19;;;;;;;19.25;9.60;;;;;;;6.27;91.32;100364.14;1699860;84;21259;-76
2022/02/11 09:14:25;;;;;;;14.15;8.43;;;;;;;6.24;91.79;100354.91;1694880;84;21698;-76
2022/02/11 09:17:31;;;;;;;18.12;10.05;;;;;;;6.22;91.75;100356.08;1705863;84;21190;-75
2022/02/11 09:20:40;;;;;;;12.40;8.38;;;;;;;6.19;91.57;100341.42;1703816;84;21218;-76
2022/02/11 09:23:51;;;;;;;12.37;7.97;;;;;;;6.12;91.75;100341.17;1728182;82;21215;-77
2022/02/11 09:26:56;;;;;;;16.40;9.25;;;;;;;6.09;91.85;100335.52;1707708;82;21610;-76
2022/02/11 09:30:01;;;;;;;11.03;6.80;;;;;;;6.17;92.61;100325.80;1709316;82;21284;-76
2022/02/11 09:33:08;;;;;;;17.30;7.70;;;;;;;6.27;92.75;100328.83;1708872;83;21323;-77
2022/02/11 09:36:16;;;;;;;16.57;6.90;;;;;;;6.41;92.40;100322.05;1706232;84;21258;-83
2022/02/11 09:39:20;;;;;;;15.28;7.85;;;;;;;6.59;92.40;100313.47;1721096;82;21322;-83
2022/02/11 09:42:30;;;;;;;12.65;7.70;;;;;;;6.81;91.71;100312.69;1710738;83;21294;-83
2022/02/11 09:45:34;;;;;;;15.18;7.12;;;;;;;6.99;91.34;100310.01;1724516;82;21323;-77
2022/02/11 09:48:38;;;;;;;12.60;6.85;;;;;;;7.10;89.55;100307.05;1721460;82;21340;-77
2022/02/11 09:51:44;;;;;;;14.65;7.28;;;;;;;7.15;87.54;100302.01;1699824;82;21306;-77
2022/02/11 09:55:31;;;;;;;13.15;7.70;;;;;;;7.21;88.49;100306.00;1709860;83;21167;-77
2022/02/11 09:57:56;;;;;;;12.18;7.55;;;;;;;7.29;88.47;100294.70;1729169;83;21772;-74
2022/02/11 10:01:01;;;;;;;12.15;6.83;;;;;;;7.30;87.87;100296.91;1722779;83;21193;-76
2022/02/11 10:04:23;;;;;;;11.15;6.95;;;;;;;7.30;88.07;100288.23;1731541;83;21169;-75
2022/02/11 10:07:28;;;;;;;16.93;7.85;;;;;;;7.29;87.96;100282.93;1717303;83;21600;-76
2022/02/11 10:10:42;;;;;;;13.65;7.08;;;;;;;7.29;88.36;100281.09;1708407;81;21266;-76
2022/02/11 10:13:47;;;;;;;16.85;8.20;;;;;;;7.34;88.32;100282.84;1711840;83;21316;-76
2022/02/11 10:17:09;;;;;;;13.83;7.78;;;;;;;7.30;87.03;100270.55;1715439;83;21691;-76
2022/02/11 10:20:18;;;;;;;16.07;8.35;;;;;;;7.25;87.23;100273.39;1706956;84;21845;-75
2022/02/11 10:23:31;;;;;;;21.07;8.28;;;;;;;7.22;87.50;100262.30;1732352;81;21183;-75
2022/02/11 10:26:36;;;;;;;18.98;7.40;;;;;;;7.24;88.63;100248.03;1726167;82;21342;-75
2022/02/11 10:29:49;;;;;;;14.33;7.95;;;;;;;7.32;88.75;100253.55;1712919;83;21312;-75
2022/02/11 10:32:57;;;;;;;15.85;7.95;;;;;;;7.35;88.15;100250.53;1700801;82;21181;-75
2022/02/11 10:36:04;;;;;;;17.52;7.70;;;;;;;7.37;87.59;100255.30;1757840;81;21335;-83
2022/02/11 10:39:22;;;;;;;15.88;8.78;;;;;;;7.39;88.09;100246.48;1714719;82;21263;-82
2022/02/11 10:42:27;;;;;;;11.75;7.42;;;;;;;7.46;88.90;100232.23;1747491;81;21660;-76
2022/02/11 10:45:41;;;;;;;12.23;7.05;;;;;;;7.52;88.20;100228.88;1715795;82;21173;-75
2022/02/11 10:48:48;;;;;;;14.10;7.83;;;;;;;7.53;87.86;100236.02;1753185;81;21223;-77
2022/02/11 10:51:56;;;;;;;12.18;7.05;;;;;;;7.57;87.77;100232.82;1692737;82;21255;-76
2022/02/11 10:55:03;;;;;;;11.40;6.90;;;;;;;7.67;88.39;100234.96;1752243;79;21260;-77
2022/02/11 10:58:09;;;;;;;14.73;6.80;;;;;;;7.82;87.18;100227.05;1719481;82;21163;-76
2022/02/11 11:01:10;;;;;;;14.25;7.05;;;;;;;7.95;86.91;100229.33;1757513;81;21209;-84
2022/02/11 11:04:03;;;;;;;10.25;6.47;;;;;;;8.06;86.20;100237.23;1753968;81;21724;-84
2022/02/11 11:07:10;;;;;;;13.88;6.60;;;;;;;8.11;85.29;100230.80;1711717;82;21690;-83
2022/02/11 11:10:15;;;;;;;12.73;5.92;;;;;;;8.09;84.50;100227.39;1755375;81;21283;-83
2022/02/11 11:13:23;;;;;;;12.78;5.70;;;;;;;8.09;83.83;100238.77;1721400;82;21208;-83
2022/02/11 11:16:29;;;;;;;10.85;6.12;;;;;;;8.05;83.49;100225.16;1747002;81;21293;-83
2022/02/11 11:19:40;;;;;;;12.23;5.47;;;;;;;8.02;83.38;100229.04;1756969;81;21272;-83
2022/02/11 11:22:48;;;;;;;6.92;4.65;;;;;;;7.99;83.70;100219.82;1763265;80;21299;-84
2022/02/11 11:26:09;;;;;;;8.95;4.85;;;;;;;7.96;84.09;100222.03;1757600;81;21320;-76
2022/02/11 11:29:22;;;;;;;11.03;5.47;;;;;;;7.92;83.87;100214.17;1749207;81;21934;-76
2022/02/11 11:32:28;;;;;;;9.70;5.08;;;;;;;7.92;83.54;100215.54;1758187;79;21246;-76
2022/02/11 11:35:34;;;;;;;10.40;5.30;;;;;;;7.93;83.72;100202.26;1766312;80;21256;-77
2022/02/11 11:38:46;;;;;;;10.70;5.33;;;;;;;7.97;83.46;100203.31;1766937;79;21533;-76
2022/02/11 11:41:50;;;;;;;11.35;5.28;;;;;;;8.00;83.89;100198.88;1773301;80;21833;-83
2022/02/11 11:45:03;;;;;;;12.45;5.25;;;;;;;8.06;84.05;100190.93;1769414;80;21276;-83
2022/02/11 11:48:20;;;;;;;11.05;5.10;;;;;;;8.15;84.04;100193.19;1772695;80;21296;-84
2022/02/11 11:51:25;;;;;;;11.12;4.87;;;;;;;8.23;84.20;100178.72;1760788;80;21332;-76
2022/02/11 11:54:31;;;;;;;7.12;4.42;;;;;;;8.28;82.97;100177.72;1775890;80;21276;-76
2022/02/11 11:57:42;;;;;;;10.32;4.70;;;;;;;8.25;83.16;100175.34;1776521;80;21359;-82
2022/02/11 12:00:47;;;;;;;12.82;5.10;;;;;;;8.25;83.09;100177.55;1776840;80;21350;-84
2022/02/11 12:04:26;;;;;;;9.00;5.50;;;;;;;8.25;83.39;100178.92;1764528;80;21685;-76
2022/02/11 12:07:37;;;;;;;9.80;4.30;;;;;;;8.27;83.18;100178.23;1748421;80;21867;-84
2022/02/11 12:10:43;;;;;;;8.70;4.37;;;;;;;8.33;83.37;100170.78;1700805;84;21317;-84
2022/02/11 12:13:49;;;;;;;10.03;4.92;;;;;;;8.37;83.49;100165.34;1707910;82;21815;-81
2022/02/11 12:16:54;;;;;;;11.28;5.35;;;;;;;8.41;83.64;100166.73;1716347;83;21339;-84
2022/02/11 12:19:59;;;;;;;13.75;5.62;;;;;;;8.44;83.33;100165.05;1692903;84;21325;-84
2022/02/11 12:30:04;;;;;;;9.30;5.03;;;;;;;8.53;82.57;100165.08;1722582;83;21285;-76
2022/02/11 12:33:09;;;;;;;9.38;4.67;;;;;;;8.52;82.64;100150.59;1710623;83;21354;-77
2022/02/11 12:36:18;;;;;;;9.58;5.12;;;;;;;8.56;83.21;100151.09;1673259;85;21909;-84
2022/02/11 12:39:30;;;;;;;;;;;;;;;8.55;82.92;100154.84;1675754;84;21173;-84
2022/02/11 12:42:35;;;;;;;15.20;5.85;;;;;;;8.56;83.30;100155.17;1670301;85;20697;-76
2022/02/11 12:45:49;;;;;;;18.40;6.25;;;;;;;8.52;82.47;100156.05;1671192;85;21315;-76
2022/02/11 12:48:56;;;;;;;12.47;5.22;;;;;;;8.52;82.46;100150.59;1695759;84;21339;-84
2022/02/11 12:52:03;;;;;;;16.52;5.90;;;;;;;8.54;83.09;100146.33;1693299;84;21904;-77
2022/02/11 12:55:22;;;;;;;10.32;5.60;;;;;;;8.53;82.62;100150.08;1664645;84;21213;-77
2022/02/11 12:58:27;;;;;;;10.20;5.65;;;;;;;8.49;82.70;100148.70;1649156;87;21311;-76
2022/02/11 13:01:39;;;;;;;11.80;5.70;;;;;;;8.46;83.21;100151.23;1675376;85;21245;-77
2022/02/11 13:04:44;;;;;;;8.33;5.15;;;;;;;8.44;83.52;100151.42;1706289;84;21627;-76
2022/02/11 13:07:52;;;;;;;11.80;5.65;;;;;;;8.47;83.75;100151.61;1681249;85;21960;-77
2022/02/11 13:11:14;;;;;;;10.82;5.83;;;;;;;8.50;83.81;100147.68;1669024;85;21299;-84
2022/02/11 13:14:19;;;;;;;14.38;5.83;;;;;;;8.50;84.11;100149.05;1705580;84;21323;-84
2022/02/11 13:17:25;;;;;;;14.28;6.28;;;;;;;8.52;84.12;100142.42;1665184;85;21697;-84
2022/02/11 13:20:32;;;;;;;13.75;5.78;;;;;;;8.55;84.17;100142.06;1687046;84;21299;-77
2022/02/11 13:23:39;;;;;;;12.45;5.85;;;;;;;8.54;84.26;100141.72;1686760;83;21304;-78
2022/02/11 13:26:46;;;;;;;10.78;6.30;;;;;;;8.53;84.52;100148.20;1680417;85;21319;-84
2022/02/11 13:29:52;;;;;;;15.72;6.78;;;;;;;8.55;84.83;100139.33;1668846;85;21204;-84
2022/02/11 13:32:58;;;;;;;14.13;8.35;;;;;;;8.58;85.05;100137.65;1652115;85;21358;-76
2022/02/11 13:36:08;;;;;;;14.20;7.22;;;;;;;8.63;85.41;100139.88;1698454;82;21334;-84
2022/02/11 13:39:13;;;;;;;15.98;6.50;;;;;;;8.67;85.56;100138.52;1733579;82;21262;-77
2022/02/11 13:42:22;;;;;;;15.60;6.70;;;;;;;8.73;85.62;100136.47;1705834;83;21666;-76
2022/02/11 13:45:26;;;;;;;12.40;6.40;;;;;;;8.79;85.22;100134.42;1736201;82;21275;-80
2022/02/11 13:48:33;;;;;;;15.50;7.03;;;;;;;8.86;84.74;100140.08;1712790;83;21166;-84
2022/02/11 13:51:39;;;;;;;13.32;7.10;;;;;;;8.87;84.47;100138.53;1728239;82;21903;-84
2022/02/11 13:54:48;;;;;;;11.20;6.70;;;;;;;8.91;84.00;100139.91;1732986;82;21573;-76
2022/02/11 13:57:53;;;;;;;14.05;7.22;;;;;;;8.91;83.54;100137.17;1716972;82;21338;-76
2022/02/11 14:00:58;;;;;;;15.98;7.67;;;;;;;8.92;83.51;100138.87;1740139;82;21286;-76
2022/02/11 14:04:10;;;;;;;17.90;7.78;;;;;;;8.93;83.37;100141.94;1736462;82;21351;-77
2022/02/11 14:07:20;;;;;;;17.98;8.10;;;;;;;8.89;83.37;100143.33;1725214;82;21303;-76
2022/02/11 14:10:25;;;;;;;13.32;8.20;;;;;;;8.88;83.49;100147.05;1740341;82;21164;-77
2022/02/11 14:13:31;;;;;;;12.35;7.33;;;;;;;8.84;83.62;100151.12;1729988;82;21204;-84
2022/02/11 14:16:36;;;;;;;17.80;9.38;;;;;;;8.81;83.79;100160.19;1710547;84;21319;-85
2022/02/11 14:19:42;;;;;;;13.48;9.03;;;;;;;8.75;83.83;100157.62;1695346;84;21820;-78
2022/02/11 14:22:48;;;;;;;16.82;8.85;;;;;;;8.69;83.81;100158.28;1695583;84;21358;-82
2022/02/11 14:25:55;;;;;;;19.80;9.60;;;;;;;8.62;83.50;100163.56;1712109;84;21812;-82
2022/02/11 14:29:00;;;;;;;16.20;9.30;;;;;;;8.55;83.52;100156.20;1696851;84;21281;-76
2022/02/11 14:32:05;;;;;;;15.93;10.18;;;;;;;8.47;83.74;100154.33;1696485;84;21360;-83
2022/02/11 14:35:11;;;;;;;18.95;11.40;;;;;;;8.38;83.55;100161.63;1706935;84;21301;-75
2022/02/11 14:38:16;;;;;;;19.73;11.15;;;;;;;8.30;83.53;100160.71;1712509;83;21214;-85
2022/02/11 14:44:46;;;;;;;26.00;13.20;;;;;;;8.12;83.68;100158.09;1691507;85;21843;-76
2022/02/11 14:47:51;;;;;;;22.62;14.05;;;;;;;8.00;83.78;100160.75;1691017;85;21300;-84
2022/02/11 14:50:56;;;;;;;24.37;15.15;;;;;;;7.85;84.03;100161.88;1692024;85;21849;-84
2022/02/11 14:54:08;;;;;;;27.98;15.53;;;;;;;7.68;84.46;100169.11;1705163;81;21729;-84
2022/02/11 14:57:09;;;;;;;27.02;16.85;;;;;;;7.49;85.18;100181.58;1729171;83;21237;-84
2022/02/11 15:00:15;;;;;;;27.60;17.00;;;;;;;7.29;85.94;100182.27;1729957;83;21278;-76
2022/02/11 15:03:20;;;;;;;39.92;18.17;;;;;;;7.10;86.88;100186.02;1729977;83;21869;-84
2022/02/11 15:06:25;;;;;;;30.48;17.05;;;;;;;6.93;87.40;100186.91;1729562;83;21184;-76
2022/02/11 15:09:31;;;;;;;28.30;18.00;;;;;;;6.79;87.66;100186.44;1730039;81;21287;-84
2022/02/11 15:12:37;;;;;;;30.48;18.25;;;;;;;6.64;87.92;100183.41;1729664;83;21329;-77
2022/02/11 15:15:45;;;;;;;27.02;17.73;;;;;;;6.54;88.24;100193.48;1728226;83;21200;-76
2022/02/11 15:18:51;;;;;;;23.18;16.73;;;;;;;6.45;88.43;100193.55;1728437;83;21188;-84
2022/02/11 15:21:56;;;;;;;31.45;15.78;;;;;;;6.38;88.70;100195.50;1728343;83;21282;-84
2022/02/11 15:25:01;;;;;;;28.67;17.62;;;;;;;6.29;88.86;100200.48;1728457;81;21906;-75
2022/02/11 15:28:07;;;;;;;29.77;16.93;;;;;;;6.21;89.04;100199.05;1728311;83;21196;-84
2022/02/11 15:31:13;;;;;;;25.08;16.50;;;;;;;6.15;89.24;100208.62;1729680;83;21267;-84
2022/02/11 15:34:18;;;;;;;31.42;17.45;;;;;;;6.09;89.38;100198.88;1729768;83;21306;-84
2022/02/11 15:37:24;;;;;;;34.58;19.20;;;;;;;6.03;89.72;100203.56;1727513;83;21181;-76
2022/02/11 15:40:31;;;;;;;34.60;19.30;;;;;;;6.02;89.72;100205.91;1736388;82;21299;-84
2022/02/11 15:43:38;;;;;;;27.77;17.92;;;;;;;5.99;89.64;100211.66;1736967;82;21271;-84
2022/02/11 15:46:45;;;;;;;30.82;17.42;;;;;;;5.94;89.74;100216.17;1736218;82;21306;-76
2022/02/11 15:49:49;;;;;;;32.08;19.02;;;;;;;5.87;89.82;100218.58;1737272;82;21279;-84
2022/02/11 15:52:55;;;;;;;26.57;17.50;;;;;;;5.80;90.09;100224.77;1737162;82;21291;-78
2022/02/11 15:56:01;;;;;;;24.72;17.07;;;;;;;5.76;90.44;100226.91;1735832;82;21787;-83
2022/02/11 15:59:06;;;;;;;26.23;17.57;;;;;;;5.69;90.75;100226.27;1737324;82;21879;-84
2022/02/11 16:02:11;;;;;;;27.67;17.27;;;;;;;5.64;90.98;100233.50;1737234;82;21188;-76
2022/02/11 16:05:17;;;;;;;33.78;17.95;;;;;;;5.58;91.14;100235.45;1737137;82;21200;-82
2022/02/11 16:08:23;;;;;;;24.98;15.32;;;;;;;5.51;91.34;100249.27;1737116;82;21307;-83
2022/02/11 16:11:28;;;;;;;24.20;17.05;;;;;;;5.44;91.67;100255.75;1737207;82;21291;-76
2022/02/11 16:14:34;;;;;;;31.10;17.82;;;;;;;5.37;92.05;100251.92;1737175;82;21260;-75
2022/02/11 16:17:59;;;;;;;26.80;17.87;;;;;;;5.32;92.28;100255.56;1736273;82;21169;-84
2022/02/11 16:20:49;;;;;;;27.42;19.37;;;;;;;5.26;92.43;100256.97;1737141;82;21148;-84
2022/02/11 16:23:55;;;;;;;28.70;18.87;;;;;;;5.22;92.56;100262.35;1735714;82;21192;-77
2022/02/11 16:27:00;;;;;;;35.55;19.45;;;;;;;5.18;92.57;100257.36;1736506;82;21738;-84
2022/02/11 16:30:07;;;;;;;44.03;20.77;;;;;;;5.10;92.74;100261.63;1737525;82;21307;-77
2022/02/11 16:33:13;;;;;;;29.52;18.95;;;;;;;5.05;92.96;100271.19;1737328;82;21326;-83
2022/02/11 16:36:17;;;;;;;29.27;19.27;;;;;;;5.03;93.22;100267.23;1737100;82;21367;-76
2022/02/11 16:39:22;;;;;;;30.12;18.60;;;;;;;5.02;93.27;100273.66;1728940;81;21310;-84
2022/02/11 16:42:28;;;;;;;30.90;19.92;;;;;;;4.98;93.28;100272.73;1721069;83;21382;-76
2022/02/11 16:45:35;;;;;;;30.02;19.52;;;;;;;4.94;93.29;100276.72;1721770;83;21268;-84
2022/02/11 16:48:40;;;;;;;30.27;19.52;;;;;;;4.90;93.27;100273.46;1721843;83;21299;-76
2022/02/11 16:51:48;;;;;;;32.73;20.80;;;;;;;4.85;93.21;100279.30;1721368;83;21377;-77
2022/02/11 16:54:54;;;;;;;28.20;19.62;;;;;;;4.81;93.23;100277.87;1721540;81;21302;-84
2022/02/11 16:58:00;;;;;;;34.85;19.90;;;;;;;4.77;93.12;100284.56;1720644;83;21334;-84
2022/02/11 17:01:07;;;;;;;37.08;23.02;;;;;;;4.72;93.11;100285.48;1721768;83;21275;-77
2022/02/11 17:04:13;;;;;;;35.23;22.65;;;;;;;4.62;92.89;100281.89;1721751;83;21342;-85
2022/02/11 17:07:19;;;;;;;36.53;22.82;;;;;;;4.56;93.07;100283.31;1720921;83;21347;-84
2022/02/11 17:10:25;;;;;;;34.43;23.73;;;;;;;4.52;93.08;100290.50;1721695;81;21161;-76
2022/02/11 17:13:30;;;;;;;36.60;22.30;;;;;;;4.47;93.32;100296.80;1721782;83;21225;-84
2022/02/11 17:16:36;;;;;;;35.17;22.20;;;;;;;4.48;93.71;100303.45;1721867;83;21339;-76
2022/02/11 17:19:41;;;;;;;36.42;22.98;;;;;;;4.49;93.75;100294.82;1722019;83;21275;-81
2022/02/11 17:22:48;;;;;;;42.08;24.20;;;;;;;4.45;93.79;100303.71;1721113;83;21208;-77
2022/02/11 17:25:53;;;;;;;33.88;21.00;;;;;;;4.44;94.04;100310.12;1732982;83;21186;-77
2022/02/11 17:28:59;;;;;;;34.18;23.20;;;;;;;4.49;94.29;100308.37;1733012;83;21616;-83
2022/02/11 17:32:07;;;;;;;30.77;20.30;;;;;;;4.53;94.47;100298.98;1732232;82;21798;-79
2022/02/11 17:35:13;;;;;;;29.30;20.40;;;;;;;4.56;94.43;100297.32;1730269;83;21623;-75
2022/02/11 17:38:19;;;;;;;36.88;22.75;;;;;;;4.59;94.48;100302.48;1701893;83;21329;-76
2022/02/11 17:41:27;;;;;;;33.18;21.87;;;;;;;4.59;94.23;100300.63;1701383;83;21189;-84
2022/02/11 17:44:32;;;;;;;33.48;22.55;;;;;;;4.61;94.03;100301.83;1702829;84;21295;-84
2022/02/11 17:47:37;;;;;;;26.52;19.15;;;;;;;4.62;94.00;100306.28;1703097;84;21850;-84
2022/02/11 17:50:42;;;;;;;33.83;20.27;;;;;;;4.66;94.00;100302.30;1710327;83;21316;-76
2022/02/11 17:53:48;;;;;;;30.35;20.95;;;;;;;4.68;93.98;100304.86;1695051;83;21320;-84
2022/02/11 17:56:54;;;;;;;31.77;19.80;;;;;;;4.72;93.98;100303.59;1706420;82;21330;-76
2022/02/11 17:59:59;;;;;;;29.70;20.40;;;;;;;4.76;93.97;100303.67;1718870;83;21283;-77
2022/02/11 18:03:05;;;;;;;30.97;20.65;;;;;;;4.77;93.89;100314.87;1704157;84;21308;-76
2022/02/11 18:06:11;;;;;;;32.10;19.92;;;;;;;4.80;93.88;100301.91;1707504;82;21147;-84
2022/02/11 18:09:16;;;;;;;30.08;19.80;;;;;;;4.84;93.89;100309.23;1703190;82;21172;-75
2022/02/11 18:12:23;;;;;;;27.77;19.32;;;;;;;4.91;93.91;100313.11;1704619;83;21385;-84